Waukon, Iowa
Current Conditions -  °F | °C
As of 7:55 PM on Monday 24 Nov 2014 (Local Time) from KDEH Reporting Station
Overcast Overcast  
Wind Chill:   Ceiling: 1200
Heat Index: 16°   Visibility: 10mi
Dew Point: 10°   Wind: 13mph
Humidity: 79%   Direction: 300°WNW
Pressure: 29.73"   Gusts: 22mph
Location:  43.27°N, 91.48°W
Report Text: KDEH 250155Z AUTO 30011G19KT 10SM BKN012 BKN017 OVC030 M09/M12 A2973 RMK AO2
Loading
Personal Weather Stations






























Interactive Weather Map New forecast layout! Learn more

10-Day Weather Forecast

Advertisements
Track Severe Weather on mobile